DLH28N LGAV-LOWW
Flight info
| Callsign | DLH28N |
|---|---|
| Flight time | N/A |
| Altitude | 38000 |
| Route | KOR UL53 GARTA UV60 YNN UL604 DIMIS DCT RETRA DCT OBUTI OBUTI2W |
| Aircraft | A20N/M-SDE2E3FGHIRWXY/LB1 |
Departure
| Time | N/A |
|---|---|
| Airport | Athens Eleftherios Venizelos International Airport (LGAV) |
Arrival
| Time | 2026-04-21 18:27 |
|---|---|
| Airport | Vienna International Airport (LOWW) |
| Time | Latitude | Longitude | Altitude | Speed | Heading |
|---|---|---|---|---|---|
| 2026-04-21 18:03 | 46.98986 | 15.91191 | 33507 ft | 465 kts | 334° |
| 2026-04-21 18:03 | 47.01946 | 15.89409 | 32779 ft | 465 kts | 334° |
| 2026-04-21 18:04 | 47.04927 | 15.87612 | 32034 ft | 465 kts | 335° |
| 2026-04-21 18:04 | 47.07893 | 15.85822 | 31285 ft | 464 kts | 335° |
| 2026-04-21 18:04 | 47.09699 | 15.84732 | 30824 ft | 464 kts | 335° |
| 2026-04-21 18:05 | 47.11222 | 15.83813 | 30422 ft | 465 kts | 335° |
| 2026-04-21 18:05 | 47.14175 | 15.82036 | 29650 ft | 465 kts | 335° |
| 2026-04-21 18:05 | 47.17016 | 15.80326 | 28891 ft | 465 kts | 335° |
| 2026-04-21 18:05 | 47.19412 | 15.78880 | 28329 ft | 462 kts | 335° |
| 2026-04-21 18:06 | 47.22261 | 15.77158 | 27874 ft | 455 kts | 335° |
| 2026-04-21 18:06 | 47.25144 | 15.75412 | 27394 ft | 450 kts | 335° |
| 2026-04-21 18:06 | 47.28035 | 15.73656 | 26903 ft | 444 kts | 335° |
| 2026-04-21 18:06 | 47.30830 | 15.71955 | 26420 ft | 439 kts | 335° |
| 2026-04-21 18:07 | 47.33660 | 15.70230 | 25926 ft | 435 kts | 335° |
| 2026-04-21 18:07 | 47.36425 | 15.68542 | 25439 ft | 431 kts | 335° |
| 2026-04-21 18:07 | 47.39142 | 15.66881 | 24959 ft | 427 kts | 335° |
| 2026-04-21 18:07 | 47.41880 | 15.65205 | 24472 ft | 423 kts | 335° |
| 2026-04-21 18:08 | 47.44575 | 15.63554 | 23990 ft | 419 kts | 335° |
| 2026-04-21 18:08 | 47.47255 | 15.61910 | 23508 ft | 416 kts | 335° |
| 2026-04-21 18:08 | 47.49881 | 15.60297 | 23034 ft | 412 kts | 335° |
| 2026-04-21 18:08 | 47.52512 | 15.58680 | 22557 ft | 409 kts | 335° |
| 2026-04-21 18:09 | 47.55120 | 15.57075 | 22082 ft | 405 kts | 335° |
| 2026-04-21 18:09 | 47.57711 | 15.55478 | 21610 ft | 402 kts | 336° |
| 2026-04-21 18:09 | 47.59420 | 15.54424 | 21297 ft | 400 kts | 336° |
| 2026-04-21 18:09 | 47.62788 | 15.52343 | 20674 ft | 396 kts | 336° |
| 2026-04-21 18:10 | 47.65311 | 15.50783 | 20206 ft | 393 kts | 336° |
| 2026-04-21 18:10 | 47.67809 | 15.49235 | 19741 ft | 390 kts | 336° |
| 2026-04-21 18:10 | 47.70315 | 15.47680 | 19272 ft | 387 kts | 336° |
| 2026-04-21 18:10 | 47.72782 | 15.46148 | 18808 ft | 384 kts | 336° |
| 2026-04-21 18:11 | 47.75231 | 15.44627 | 18345 ft | 382 kts | 336° |
| 2026-04-21 18:11 | 47.77657 | 15.43120 | 17884 ft | 379 kts | 336° |
| 2026-04-21 18:11 | 47.80077 | 15.41737 | 17410 ft | 379 kts | 344° |
| 2026-04-21 18:11 | 47.82674 | 15.41399 | 16931 ft | 379 kts | 5° |
| 2026-04-21 18:12 | 47.85215 | 15.42455 | 16449 ft | 379 kts | 26° |
| 2026-04-21 18:12 | 47.87316 | 15.44723 | 15974 ft | 378 kts | 46° |
| 2026-04-21 18:12 | 47.88774 | 15.47961 | 15497 ft | 376 kts | 67° |
| 2026-04-21 18:12 | 47.89387 | 15.51670 | 15027 ft | 373 kts | 87° |
| 2026-04-21 18:13 | 47.89117 | 15.55497 | 14553 ft | 369 kts | 108° |
| 2026-04-21 18:13 | 47.88142 | 15.59002 | 14097 ft | 366 kts | 116° |
| 2026-04-21 18:13 | 47.87236 | 15.62509 | 13633 ft | 364 kts | 108° |
| 2026-04-21 18:13 | 47.86514 | 15.66101 | 13176 ft | 362 kts | 107° |
| 2026-04-21 18:14 | 47.85222 | 15.73252 | 12276 ft | 357 kts | 105° |
| 2026-04-21 18:14 | 47.84605 | 15.76826 | 11827 ft | 355 kts | 105° |
| 2026-04-21 18:14 | 47.84006 | 15.80334 | 11383 ft | 353 kts | 104° |
| 2026-04-21 18:15 | 47.83402 | 15.83892 | 10930 ft | 350 kts | 104° |
| 2026-04-21 18:15 | 47.82809 | 15.87383 | 10485 ft | 348 kts | 104° |
| 2026-04-21 18:15 | 47.82231 | 15.90792 | 10301 ft | 335 kts | 104° |
| 2026-04-21 18:15 | 47.81674 | 15.94073 | 10204 ft | 321 kts | 104° |
| 2026-04-21 18:16 | 47.81142 | 15.97203 | 10115 ft | 307 kts | 104° |
| 2026-04-21 18:16 | 47.80628 | 16.00217 | 10041 ft | 294 kts | 104° |
| 2026-04-21 18:16 | 47.80134 | 16.03113 | 9870 ft | 286 kts | 104° |
| 2026-04-21 18:16 | 47.79649 | 16.05953 | 9539 ft | 284 kts | 104° |
| 2026-04-21 18:17 | 47.79160 | 16.08814 | 9223 ft | 282 kts | 104° |
| 2026-04-21 18:17 | 47.78679 | 16.11613 | 8918 ft | 280 kts | 104° |
| 2026-04-21 18:17 | 47.78202 | 16.14387 | 8618 ft | 277 kts | 104° |
| 2026-04-21 18:17 | 47.77725 | 16.17152 | 8320 ft | 275 kts | 104° |
| 2026-04-21 18:18 | 47.77251 | 16.19901 | 8025 ft | 273 kts | 104° |
| 2026-04-21 18:18 | 47.76933 | 16.22656 | 7704 ft | 271 kts | 88° |
| 2026-04-21 18:18 | 47.77326 | 16.25331 | 7407 ft | 268 kts | 64° |
| 2026-04-21 18:18 | 47.78192 | 16.27750 | 7128 ft | 265 kts | 59° |
| 2026-04-21 18:19 | 47.79124 | 16.30119 | 6840 ft | 263 kts | 59° |
| 2026-04-21 18:19 | 47.80035 | 16.32431 | 6559 ft | 261 kts | 59° |
| 2026-04-21 18:19 | 47.80946 | 16.34766 | 6276 ft | 259 kts | 59° |
| 2026-04-21 18:19 | 47.81844 | 16.37094 | 5994 ft | 258 kts | 59° |
| 2026-04-21 18:20 | 47.82723 | 16.39387 | 5717 ft | 256 kts | 59° |
| 2026-04-21 18:20 | 47.83601 | 16.41688 | 5439 ft | 255 kts | 59° |
| 2026-04-21 18:20 | 47.84469 | 16.43969 | 5163 ft | 253 kts | 59° |
| 2026-04-21 18:20 | 47.85329 | 16.46231 | 4889 ft | 252 kts | 59° |
| 2026-04-21 18:21 | 47.86184 | 16.48485 | 4616 ft | 251 kts | 59° |
| 2026-04-21 18:21 | 47.87046 | 16.50759 | 4341 ft | 250 kts | 59° |
| 2026-04-21 18:21 | 47.87896 | 16.53003 | 4070 ft | 248 kts | 59° |
| 2026-04-21 18:21 | 47.88732 | 16.55215 | 3806 ft | 243 kts | 59° |
| 2026-04-21 18:22 | 47.89547 | 16.57373 | 3550 ft | 239 kts | 59° |
| 2026-04-21 18:22 | 47.90358 | 16.59520 | 3285 ft | 235 kts | 59° |
| 2026-04-21 18:22 | 47.91150 | 16.61622 | 3042 ft | 231 kts | 60° |
| 2026-04-21 18:22 | 47.91933 | 16.63654 | 2844 ft | 224 kts | 54° |
| 2026-04-21 18:23 | 47.93063 | 16.65088 | 2795 ft | 209 kts | 19° |
| 2026-04-21 18:23 | 47.94446 | 16.65289 | 2816 ft | 201 kts | 351° |
| 2026-04-21 18:23 | 47.95801 | 16.64802 | 2821 ft | 201 kts | 343° |
| 2026-04-21 18:23 | 47.97127 | 16.64162 | 2817 ft | 201 kts | 342° |
| 2026-04-21 18:24 | 47.98446 | 16.63544 | 2790 ft | 193 kts | 343° |
| 2026-04-21 18:24 | 47.99715 | 16.62989 | 2525 ft | 188 kts | 344° |
| 2026-04-21 18:24 | 48.00925 | 16.62482 | 2255 ft | 176 kts | 345° |
| 2026-04-21 18:24 | 48.02063 | 16.62006 | 1990 ft | 166 kts | 345° |
| 2026-04-21 18:25 | 48.03133 | 16.61557 | 1751 ft | 155 kts | 345° |
| 2026-04-21 18:25 | 48.04152 | 16.61127 | 1546 ft | 149 kts | 345° |
| 2026-04-21 18:25 | 48.05114 | 16.60720 | 1345 ft | 140 kts | 344° |
| 2026-04-21 18:25 | 48.06041 | 16.60329 | 1106 ft | 138 kts | 345° |
| 2026-04-21 18:26 | 48.06959 | 16.59956 | 983 ft | 138 kts | 344° |
| 2026-04-21 18:26 | 48.07879 | 16.59554 | 823 ft | 137 kts | 344° |
| 2026-04-21 18:26 | 48.08801 | 16.59161 | 666 ft | 137 kts | 344° |
| 2026-04-21 18:26 | 48.09680 | 16.58793 | 610 ft | 118 kts | 345° |
| 2026-04-21 18:27 | 48.10298 | 16.58531 | 613 ft | 69 kts | 345° |
| 2026-04-21 18:27 | 48.10598 | 16.58398 | 611 ft | 29 kts | 338° |
| 2026-04-21 18:27 | 48.10740 | 16.58266 | 610 ft | 22 kts | 319° |
| 2026-04-21 18:27 | 48.10754 | 16.58248 | 610 ft | 0 kts | 316° |
| 2026-04-21 18:28 | 48.10757 | 16.58242 | 610 ft | 6 kts | 314° |
| 2026-04-21 18:28 | 48.10788 | 16.58196 | 610 ft | 14 kts | 315° |
| 2026-04-21 18:28 | 48.10864 | 16.58078 | 610 ft | 15 kts | 315° |
| 2026-04-21 18:28 | 48.10891 | 16.58038 | 610 ft | 0 kts | 316° |
| 2026-04-21 18:29 | 48.10903 | 16.58021 | 610 ft | 5 kts | 319° |
| 2026-04-21 18:29 | 48.10983 | 16.57964 | 609 ft | 5 kts | 342° |
| 2026-04-21 18:29 | 48.11029 | 16.57944 | 608 ft | 7 kts | 345° |
| 2026-04-21 18:29 | 48.11084 | 16.57913 | 608 ft | 8 kts | 326° |
| 2026-04-21 18:30 | 48.11121 | 16.57834 | 608 ft | 9 kts | 295° |
| 2026-04-21 18:30 | 48.11128 | 16.57809 | 608 ft | 0 kts | 294° |
| 2026-04-21 18:31 | 48.11135 | 16.57786 | 608 ft | 6 kts | 295° |
| 2026-04-21 18:31 | 48.11164 | 16.57700 | 608 ft | 10 kts | 295° |
| 2026-04-21 18:31 | 48.11195 | 16.57601 | 607 ft | 10 kts | 295° |
| 2026-04-21 18:32 | 48.11229 | 16.57495 | 607 ft | 11 kts | 300° |
| 2026-04-21 18:32 | 48.11267 | 16.57381 | 607 ft | 12 kts | 296° |
| 2026-04-21 18:32 | 48.11307 | 16.57256 | 606 ft | 13 kts | 297° |
| 2026-04-21 18:32 | 48.11349 | 16.57128 | 605 ft | 14 kts | 296° |
| 2026-04-21 18:33 | 48.11377 | 16.57040 | 605 ft | 9 kts | 296° |
| 2026-04-21 18:33 | 48.11412 | 16.56933 | 603 ft | 13 kts | 295° |
| 2026-04-21 18:33 | 48.11490 | 16.56893 | 602 ft | 14 kts | 25° |
| 2026-04-21 18:33 | 48.11583 | 16.56896 | 602 ft | 14 kts | 316° |
| 2026-04-21 18:34 | 48.11631 | 16.56759 | 600 ft | 15 kts | 297° |
| 2026-04-21 18:34 | 48.11676 | 16.56701 | 599 ft | 9 kts | 22° |
| 2026-04-21 18:34 | 48.11723 | 16.56737 | 599 ft | 0 kts | 26° |